X  Sluiten METAR luchtvaart weer gegevens      EHAM Amsterdam Airport Schiphol
Temperatuur
15°C Temperatuur
12°C Dauwpunt
82% Vochtigheid



Wind
29 KM/U
18 MPH
8 M/S
16 KTS



210°
ZZW
Huidig weer

Wat bewolking Wat bewolking
Luchtdruk 1020.92 (hPa) - 30.15 (inHg)
Zicht 6.2 (mijl) - 10 (km)
Vliegveld
Vliegveld code EHAM

Locatie : Amsterdam Airport Schiphol
Afstand: 2 (km)

Metar:
EHAM 270925Z 21016KT 9999 FEW013 BKN024 15/12 Q1021 NOSIG

Tijd: 27-10-2021 11:25 CEST